Herentals, Belgium
Current Conditions -  °F | °C
As of 1:50 AM on Thursday 18 Dec 2014 (Local Time) from EBAW Reporting Station
Haze Haze  
Wind Chill: 11°   Ceiling: 400
Heat Index: 11°   Visibility: 2.1mi
Dew Point:   Wind: 9mph
Humidity: 88%   Direction: 210°SSW
Pressure: 29.8"   Gusts: NA
Location:  51.18°N, 4.83°E
Report Text: EBAW 180050Z AUTO 21008KT 3500 BR BKN004/// OVC006/// 11/09 Q1009
Loading
Personal Weather Stations






























Interactive Weather Map New forecast layout! Learn more

10-Day Weather Forecast

Advertisements
Track Severe Weather on mobile